createdAt,value
2018-12-26T00:01:52.435Z,7.87
2018-12-26T00:04:21.329Z,6.78
2018-12-26T00:06:49.923Z,7.70
2018-12-26T00:09:18.579Z,7.77
2018-12-26T00:11:46.978Z,7.33
2018-12-26T00:14:16.339Z,8.38
2018-12-26T00:16:44.883Z,8.15
2018-12-26T00:19:13.377Z,8.50
2018-12-26T00:24:17.394Z,7.20
2018-12-26T00:26:46.256Z,7.80
2018-12-26T00:29:14.701Z,6.75
2018-12-26T00:31:43.123Z,8.10
2018-12-26T00:34:12.293Z,6.45
2018-12-26T00:36:40.830Z,8.65
2018-12-26T00:39:09.356Z,7.60
2018-12-26T00:41:38.107Z,8.67
2018-12-26T00:44:07.256Z,7.47
2018-12-26T00:46:35.730Z,7.58
2018-12-26T00:49:04.221Z,7.80
2018-12-26T00:51:40.731Z,7.90
2018-12-26T00:54:09.147Z,8.37
2018-12-26T00:56:37.562Z,8.27
2018-12-26T00:59:05.983Z,9.00
2018-12-26T01:01:34.436Z,8.15
2018-12-26T01:04:03.272Z,7.73
2018-12-26T01:06:35.691Z,7.80
2018-12-26T01:09:06.143Z,7.97
2018-12-26T01:11:34.643Z,6.67
2018-12-26T01:14:03.047Z,6.62
2018-12-26T01:16:31.472Z,9.27
2018-12-26T01:18:59.977Z,7.42
2018-12-26T01:21:28.389Z,6.90
2018-12-26T01:23:56.853Z,6.77
2018-12-26T01:26:25.275Z,6.77
2018-12-26T01:28:53.719Z,6.75
2018-12-26T01:31:22.129Z,7.50
2018-12-26T01:33:50.804Z,7.55
2018-12-26T01:36:19.211Z,6.73
2018-12-26T01:38:48.560Z,7.25
2018-12-26T01:41:16.971Z,7.43
2018-12-26T01:43:45.410Z,7.30
2018-12-26T01:46:13.871Z,8.03
2018-12-26T01:48:42.290Z,7.43
2018-12-26T01:51:10.698Z,8.40
2018-12-26T01:53:42.758Z,7.80
2018-12-26T01:56:11.165Z,7.83
2018-12-26T01:58:39.611Z,8.03
2018-12-26T02:01:08.024Z,9.10
2018-12-26T02:03:36.453Z,7.50
2018-12-26T02:06:05.122Z,7.50
2018-12-26T02:08:37.107Z,8.45
2018-12-26T02:11:05.541Z,8.20
2018-12-26T02:13:34.150Z,8.47
2018-12-26T02:16:02.587Z,7.70
2018-12-26T02:18:31.000Z,7.53
2018-12-26T02:20:59.411Z,8.20
2018-12-26T02:23:32.398Z,8.30
2018-12-26T02:26:00.817Z,9.00
2018-12-26T02:28:29.734Z,7.17
2018-12-26T02:30:58.253Z,7.53
2018-12-26T02:33:26.650Z,7.80
2018-12-26T02:35:55.372Z,8.63
2018-12-26T02:38:24.533Z,8.03
2018-12-26T02:40:53.074Z,8.98
2018-12-26T02:43:21.513Z,9.57
2018-12-26T02:45:49.951Z,9.23
2018-12-26T02:48:18.370Z,8.95
2018-12-26T02:50:46.825Z,9.30
2018-12-26T02:53:15.239Z,9.77
2018-12-26T02:55:44.592Z,8.87
2018-12-26T02:58:13.032Z,9.23
2018-12-26T03:00:41.458Z,9.50
2018-12-26T03:03:09.917Z,8.70
2018-12-26T03:05:39.248Z,9.43
2018-12-26T03:08:07.687Z,7.20
2018-12-26T03:10:36.113Z,8.00
2018-12-26T03:13:04.661Z,9.20
2018-12-26T03:15:33.076Z,8.57
2018-12-26T03:18:01.539Z,8.43
2018-12-26T03:20:29.974Z,7.70
2018-12-26T03:22:59.011Z,8.68
2018-12-26T03:25:31.397Z,6.90
2018-12-26T03:27:59.808Z,8.20
2018-12-26T03:30:28.264Z,7.90
2018-12-26T03:32:56.834Z,7.83
2018-12-26T03:35:25.322Z,7.67
2018-12-26T03:37:54.390Z,8.60
2018-12-26T03:40:22.803Z,7.77
2018-12-26T03:42:51.629Z,7.93
2018-12-26T03:45:20.878Z,8.73
2018-12-26T03:47:49.829Z,8.73
2018-12-26T03:50:18.256Z,9.17
2018-12-26T03:52:46.680Z,8.48
2018-12-26T03:55:19.149Z,8.10
2018-12-26T03:57:47.875Z,8.15
2018-12-26T04:00:16.560Z,7.95
2018-12-26T04:02:44.975Z,8.77
2018-12-26T04:05:13.400Z,9.03
2018-12-26T04:07:41.839Z,8.67
2018-12-26T04:10:14.388Z,9.33
2018-12-26T04:12:42.973Z,8.50
2018-12-26T04:15:11.389Z,9.07
2018-12-26T04:17:40.442Z,8.50
2018-12-26T04:20:08.964Z,9.10
2018-12-26T04:22:37.415Z,9.47
2018-12-26T04:25:08.767Z,8.58
2018-12-26T04:27:37.299Z,8.97
2018-12-26T04:30:08.592Z,8.83
2018-12-26T04:32:37.034Z,9.73
2018-12-26T04:35:05.822Z,9.50
2018-12-26T04:37:34.271Z,11.15
2018-12-26T04:40:05.891Z,9.80
2018-12-26T04:42:34.306Z,9.20
2018-12-26T04:45:02.735Z,12.85
2018-12-26T04:47:31.335Z,9.38
2018-12-26T04:49:59.768Z,10.40
2018-12-26T04:52:28.226Z,9.43
2018-12-26T04:54:56.686Z,9.23
2018-12-26T04:57:25.267Z,10.08
2018-12-26T04:59:54.015Z,10.25
2018-12-26T05:02:22.455Z,9.90
2018-12-26T05:04:50.870Z,10.00
2018-12-26T05:07:19.331Z,8.90
2018-12-26T05:09:47.830Z,10.90
2018-12-26T05:12:16.311Z,8.63
2018-12-26T05:14:45.685Z,10.63
2018-12-26T05:17:14.101Z,9.60
2018-12-26T05:19:42.547Z,11.73
2018-12-26T05:22:10.965Z,9.23
2018-12-26T05:24:39.413Z,9.68
2018-12-26T05:27:07.859Z,10.53
2018-12-26T05:29:36.296Z,10.00
2018-12-26T05:32:05.663Z,9.78
2018-12-26T05:34:34.103Z,10.53
2018-12-26T05:37:02.530Z,10.07
2018-12-26T05:39:30.987Z,9.60
2018-12-26T05:41:59.400Z,9.90
2018-12-26T05:44:28.038Z,9.80
2018-12-26T05:46:56.460Z,9.98
2018-12-26T05:49:25.309Z,11.83
2018-12-26T05:51:53.757Z,10.45
2018-12-26T05:54:22.211Z,11.27
2018-12-26T05:56:53.623Z,8.37
2018-12-26T05:59:22.049Z,8.83
2018-12-26T06:01:50.798Z,10.40
2018-12-26T06:04:19.450Z,10.90
2018-12-26T06:06:47.901Z,10.57
2018-12-26T06:09:16.494Z,10.80
2018-12-26T06:11:48.875Z,10.35
2018-12-26T06:14:17.820Z,11.83
2018-12-26T06:16:46.384Z,10.65
2018-12-26T06:19:14.831Z,10.63
2018-12-26T06:21:50.666Z,12.20
2018-12-26T06:24:19.064Z,10.60
2018-12-26T06:26:52.187Z,10.00
2018-12-26T06:29:20.615Z,11.13
2018-12-26T06:31:49.232Z,11.23
2018-12-26T06:34:17.847Z,10.60
2018-12-26T06:36:46.315Z,10.78
2018-12-26T06:39:14.765Z,11.87
2018-12-26T06:41:43.210Z,11.80
2018-12-26T06:44:11.646Z,10.17
2018-12-26T06:46:40.320Z,10.27
2018-12-26T06:49:08.772Z,11.23
2018-12-26T06:51:37.907Z,10.53
2018-12-26T06:54:06.322Z,10.60
2018-12-26T06:56:34.766Z,12.17
2018-12-26T06:59:03.194Z,10.97
2018-12-26T07:01:31.613Z,11.27
2018-12-26T07:04:00.068Z,11.15
2018-12-26T07:06:28.540Z,11.55
2018-12-26T07:08:57.503Z,11.50
2018-12-26T07:11:25.972Z,12.07
2018-12-26T07:13:54.396Z,12.93
2018-12-26T07:16:22.841Z,11.50
2018-12-26T07:18:51.263Z,12.27
2018-12-26T07:21:19.688Z,11.27
2018-12-26T07:23:48.137Z,11.63
2018-12-26T07:26:16.587Z,12.10
2018-12-26T07:28:48.010Z,11.73
2018-12-26T07:31:16.448Z,12.40
2018-12-26T07:33:44.871Z,11.20
2018-12-26T07:36:13.351Z,11.08
2018-12-26T07:38:42.604Z,11.83
2018-12-26T07:41:11.018Z,11.07
2018-12-26T07:43:43.186Z,12.40
2018-12-26T07:46:11.675Z,11.57
2018-12-26T07:48:40.092Z,13.47
2018-12-26T07:51:08.580Z,13.00
2018-12-26T07:53:37.960Z,12.20
2018-12-26T07:56:06.385Z,11.67
2018-12-26T07:58:34.870Z,12.43
2018-12-26T08:01:04.113Z,10.93
2018-12-26T08:03:32.983Z,13.20
2018-12-26T08:06:01.443Z,13.13
2018-12-26T08:08:29.906Z,14.20
2018-12-26T08:10:58.378Z,14.90
2018-12-26T08:13:26.818Z,12.85
2018-12-26T08:15:55.344Z,13.07
2018-12-26T08:18:23.726Z,13.80
2018-12-26T08:20:52.562Z,13.70
2018-12-26T08:23:21.027Z,16.37
2018-12-26T08:25:49.451Z,13.57
2018-12-26T08:28:26.359Z,15.10
2018-12-26T08:30:48.052Z,19.47
2018-12-26T08:33:16.534Z,23.53
2018-12-26T08:35:44.996Z,21.25
2018-12-26T08:38:13.425Z,19.15
2018-12-26T08:40:42.448Z,14.98
2018-12-26T08:43:10.894Z,14.90
2018-12-26T08:45:39.315Z,16.23
2018-12-26T08:48:07.771Z,15.10
2018-12-26T08:50:36.193Z,14.07
2018-12-26T08:53:04.668Z,14.33
2018-12-26T08:55:33.128Z,15.50
2018-12-26T08:58:02.470Z,16.15
2018-12-26T09:00:31.055Z,17.73
2018-12-26T09:02:59.519Z,15.07
2018-12-26T09:05:27.948Z,17.62
2018-12-26T09:07:56.362Z,15.23
2018-12-26T09:10:24.798Z,13.77
2018-12-26T09:12:53.222Z,14.47
2018-12-26T09:15:25.596Z,14.95
2018-12-26T09:17:54.048Z,15.17
2018-12-26T09:20:22.650Z,14.45
2018-12-26T09:22:51.122Z,13.50
2018-12-26T09:25:19.594Z,14.40
2018-12-26T09:27:48.215Z,12.90
2018-12-26T09:30:17.801Z,14.50
2018-12-26T09:32:46.439Z,14.60
2018-12-26T09:35:14.857Z,11.88
2018-12-26T09:37:43.287Z,12.87
2018-12-26T09:40:12.455Z,13.60
2018-12-26T09:42:41.001Z,13.35
2018-12-26T09:45:12.703Z,12.50
2018-12-26T09:47:41.151Z,10.60
2018-12-26T09:50:09.587Z,12.70
2018-12-26T09:52:38.125Z,10.95
2018-12-26T09:55:06.542Z,12.00
2018-12-26T09:57:35.087Z,11.95
2018-12-26T10:00:04.738Z,13.20
2018-12-26T10:02:33.203Z,11.67
2018-12-26T10:05:01.711Z,10.40
2018-12-26T10:07:30.115Z,11.40
2018-12-26T10:09:58.563Z,10.37
2018-12-26T10:12:27.054Z,9.40
2018-12-26T10:14:55.795Z,8.70
2018-12-26T10:17:24.279Z,6.67
2018-12-26T10:19:52.703Z,7.10
2018-12-26T10:22:21.175Z,6.47
2018-12-26T10:24:49.627Z,6.70
2018-12-26T10:27:18.048Z,7.27
2018-12-26T10:29:46.737Z,8.30
2018-12-26T10:32:15.164Z,8.50
2018-12-26T10:34:43.639Z,9.33
2018-12-26T10:37:12.368Z,9.68
2018-12-26T10:39:40.792Z,8.10
2018-12-26T10:42:09.371Z,7.40
2018-12-26T10:44:37.975Z,7.35
2018-12-26T10:47:06.389Z,7.87
2018-12-26T10:49:34.848Z,7.73
2018-12-26T10:52:03.283Z,7.40
2018-12-26T10:54:31.792Z,7.15
2018-12-26T10:57:00.363Z,6.80
2018-12-26T10:59:28.819Z,7.77
2018-12-26T11:01:57.238Z,9.30
2018-12-26T11:04:26.585Z,10.00
2018-12-26T11:06:55.183Z,8.70
2018-12-26T11:09:23.653Z,7.50
2018-12-26T11:11:52.164Z,7.90
2018-12-26T11:14:20.629Z,8.90
2018-12-26T11:16:51.802Z,8.35
2018-12-26T11:19:20.254Z,9.20
2018-12-26T11:21:48.667Z,8.48
2018-12-26T11:24:17.111Z,6.87
2018-12-26T11:26:45.551Z,7.47
2018-12-26T11:29:18.498Z,9.90
2018-12-26T11:31:47.198Z,7.10
2018-12-26T11:34:15.658Z,7.97
2018-12-26T11:36:44.058Z,9.58
2018-12-26T11:39:12.550Z,9.00
2018-12-26T11:41:41.127Z,8.63
2018-12-26T11:44:09.577Z,8.15
2018-12-26T11:46:37.983Z,8.80
2018-12-26T11:49:07.337Z,9.00
2018-12-26T11:51:35.750Z,5.40
2018-12-26T11:54:04.227Z,7.57
2018-12-26T11:56:32.679Z,7.40
2018-12-26T11:59:01.149Z,6.87
2018-12-26T12:01:29.563Z,9.83
2018-12-26T12:03:57.957Z,7.60
2018-12-26T12:06:26.902Z,7.25
2018-12-26T12:08:55.321Z,7.30
2018-12-26T12:11:23.758Z,4.73
2018-12-26T12:13:52.167Z,4.87
2018-12-26T12:16:20.601Z,7.43
2018-12-26T12:18:49.027Z,7.30
2018-12-26T12:21:17.489Z,7.40
2018-12-26T12:23:45.899Z,8.38
2018-12-26T12:26:14.319Z,8.00
2018-12-26T12:28:42.794Z,7.43
2018-12-26T12:31:11.452Z,7.35
2018-12-26T12:33:39.884Z,8.38
2018-12-26T12:36:08.376Z,8.00
2018-12-26T12:38:36.829Z,8.83
2018-12-26T12:41:05.311Z,6.77
2018-12-26T12:43:33.748Z,9.20
2018-12-26T12:46:02.365Z,8.03
2018-12-26T12:48:31.536Z,7.75
2018-12-26T12:50:59.935Z,8.17
2018-12-26T12:53:28.394Z,7.83
2018-12-26T12:55:56.904Z,6.30
2018-12-26T12:58:26.328Z,7.55
2018-12-26T13:00:54.768Z,6.50
2018-12-26T13:03:23.176Z,6.40
2018-12-26T13:05:54.613Z,6.20
2018-12-26T13:08:23.035Z,6.27
2018-12-26T13:10:51.455Z,7.12
2018-12-26T13:13:19.862Z,6.72
2018-12-26T13:15:48.302Z,6.83
2018-12-26T13:18:16.756Z,5.20
2018-12-26T13:20:45.428Z,4.93
2018-12-26T13:23:13.863Z,6.05
2018-12-26T13:25:42.308Z,6.33
2018-12-26T13:28:11.388Z,6.85
2018-12-26T13:30:39.797Z,5.63
2018-12-26T13:33:08.211Z,6.40
2018-12-26T13:35:40.750Z,5.00
2018-12-26T13:38:09.183Z,4.90
2018-12-26T13:40:37.609Z,5.30
2018-12-26T13:43:06.943Z,6.33
2018-12-26T13:45:35.387Z,5.50
2018-12-26T13:48:03.796Z,6.10
2018-12-26T13:50:32.211Z,6.55
2018-12-26T13:53:00.654Z,5.47
2018-12-26T13:55:29.070Z,5.80
2018-12-26T13:57:57.518Z,7.33
2018-12-26T14:00:26.314Z,6.20
2018-12-26T14:02:54.726Z,4.92
2018-12-26T14:05:26.138Z,3.83
2018-12-26T14:07:54.703Z,5.00
2018-12-26T14:10:23.208Z,4.60
2018-12-26T14:12:51.778Z,4.12
2018-12-26T14:15:20.430Z,3.80
2018-12-26T14:17:48.855Z,4.80
2018-12-26T14:20:17.296Z,5.03
2018-12-26T14:22:46.651Z,5.17
2018-12-26T14:25:15.089Z,6.00
2018-12-26T14:27:43.502Z,6.30
2018-12-26T14:30:11.959Z,6.07
2018-12-26T14:32:40.463Z,5.03
2018-12-26T14:35:08.879Z,5.43
2018-12-26T14:37:37.293Z,5.17
2018-12-26T14:40:06.482Z,7.75
2018-12-26T14:42:34.890Z,7.30
2018-12-26T14:45:03.726Z,6.40
2018-12-26T14:47:32.164Z,6.43
2018-12-26T14:50:01.494Z,5.70
2018-12-26T14:52:29.934Z,5.45
2018-12-26T14:54:58.340Z,6.10
2018-12-26T14:57:26.755Z,5.07
2018-12-26T14:59:55.178Z,5.37
2018-12-26T15:02:23.622Z,5.00
2018-12-26T15:04:52.302Z,6.35
2018-12-26T15:07:21.532Z,5.15
2018-12-26T15:09:49.959Z,5.97
2018-12-26T15:12:18.407Z,5.23
2018-12-26T15:14:46.829Z,8.68
2018-12-26T15:17:15.239Z,6.50
2018-12-26T15:19:43.687Z,7.40
2018-12-26T15:22:12.111Z,7.77
2018-12-26T15:24:40.995Z,5.83
2018-12-26T15:27:09.477Z,6.33
2018-12-26T15:29:38.102Z,7.13
2018-12-26T15:32:06.542Z,6.87
2018-12-26T15:34:35.963Z,6.70
2018-12-26T15:37:04.402Z,6.33
2018-12-26T15:39:32.839Z,6.20
2018-12-26T15:42:01.288Z,6.53
2018-12-26T15:44:29.717Z,7.03
2018-12-26T15:46:58.165Z,7.28
2018-12-26T15:49:26.646Z,6.50
2018-12-26T15:51:56.015Z,8.90
2018-12-26T15:54:24.471Z,5.13
2018-12-26T15:56:52.911Z,7.37
2018-12-26T15:59:21.344Z,6.33
2018-12-26T16:01:50.487Z,5.42
2018-12-26T16:04:18.923Z,4.87
2018-12-26T16:06:51.290Z,6.23
2018-12-26T16:09:19.691Z,5.78
2018-12-26T16:11:48.118Z,6.30
2018-12-26T16:14:16.560Z,5.97
2018-12-26T16:16:44.975Z,6.45
2018-12-26T16:19:13.392Z,5.83
2018-12-26T16:21:45.712Z,5.33
2018-12-26T16:24:14.191Z,7.30
2018-12-26T16:26:42.650Z,7.60
2018-12-26T16:29:11.430Z,7.65
2018-12-26T16:31:39.985Z,7.80
2018-12-26T16:34:08.451Z,6.93
2018-12-26T16:36:36.920Z,7.35
2018-12-26T16:39:06.302Z,8.08
2018-12-26T16:41:34.763Z,6.72
2018-12-26T16:44:03.170Z,8.30
2018-12-26T16:46:31.609Z,8.97
2018-12-26T16:49:00.023Z,7.30
2018-12-26T16:51:28.464Z,8.80
2018-12-26T16:53:56.929Z,9.10
2018-12-26T16:56:25.879Z,7.08
2018-12-26T16:58:54.296Z,6.92
2018-12-26T17:01:22.725Z,7.03
2018-12-26T17:03:51.113Z,8.00
2018-12-26T17:06:19.536Z,9.90
2018-12-26T17:08:48.005Z,10.65
2018-12-26T17:11:16.455Z,10.30
2018-12-26T17:13:45.855Z,9.10
2018-12-26T17:16:14.280Z,10.23
2018-12-26T17:18:42.723Z,11.57
2018-12-26T17:21:11.206Z,12.47
2018-12-26T17:23:39.650Z,12.17
2018-12-26T17:26:08.091Z,11.60
2018-12-26T17:28:36.511Z,11.57
2018-12-26T17:31:05.306Z,11.00
2018-12-26T17:33:33.759Z,11.70
2018-12-26T17:36:02.175Z,12.17
2018-12-26T17:38:30.644Z,11.80
2018-12-26T17:40:59.119Z,11.95
2018-12-26T17:43:27.577Z,11.30
2018-12-26T17:45:56.025Z,12.50
2018-12-26T17:48:24.449Z,15.18
2018-12-26T17:50:52.863Z,12.80
2018-12-26T17:53:30.010Z,12.10
2018-12-26T17:56:01.504Z,11.73
2018-12-26T17:58:35.687Z,13.63
2018-12-26T18:01:16.335Z,12.63
2018-12-26T18:03:45.143Z,12.63
2018-12-26T18:06:13.579Z,14.20
2018-12-26T18:08:42.034Z,11.10
2018-12-26T18:11:10.453Z,11.97
2018-12-26T18:13:38.872Z,14.25
2018-12-26T18:16:07.321Z,11.53
2018-12-26T18:18:35.760Z,12.83
2018-12-26T18:21:04.307Z,12.25
2018-12-26T18:23:32.723Z,12.90
2018-12-26T18:26:04.772Z,13.13
2018-12-26T18:28:33.271Z,12.82
2018-12-26T18:31:01.766Z,12.67
2018-12-26T18:33:30.209Z,13.37
2018-12-26T18:35:59.532Z,15.10
2018-12-26T18:38:27.986Z,14.97
2018-12-26T18:40:56.485Z,13.78
2018-12-26T18:43:25.274Z,13.60
2018-12-26T18:45:54.644Z,14.90
2018-12-26T18:48:23.047Z,12.78
2018-12-26T18:50:51.641Z,15.80
2018-12-26T18:53:20.323Z,15.27
2018-12-26T18:55:49.511Z,14.80
2018-12-26T18:58:17.982Z,14.83
2018-12-26T19:00:46.398Z,15.85
2018-12-26T19:03:14.869Z,14.20
2018-12-26T19:05:43.323Z,14.07
2018-12-26T19:08:11.771Z,15.80
2018-12-26T19:10:44.258Z,14.53
2018-12-26T19:13:12.689Z,15.65
2018-12-26T19:15:41.105Z,16.35
2018-12-26T19:18:10.225Z,16.80
2018-12-26T19:20:38.671Z,15.07
2018-12-26T19:23:07.146Z,17.00
2018-12-26T19:25:35.700Z,14.07
2018-12-26T19:28:05.145Z,15.32
2018-12-26T19:30:33.640Z,16.60
2018-12-26T19:33:02.109Z,17.33
2018-12-26T19:35:30.550Z,16.17
2018-12-26T19:37:59.089Z,15.50
2018-12-26T19:40:27.585Z,15.63
2018-12-26T19:42:56.064Z,16.67
2018-12-26T19:45:24.718Z,16.02
2018-12-26T19:47:53.522Z,15.65
2018-12-26T19:50:21.963Z,14.07
2018-12-26T19:52:50.530Z,15.67
2018-12-26T19:55:22.811Z,17.57
2018-12-26T19:57:51.387Z,15.80
2018-12-26T20:00:20.307Z,15.25
2018-12-26T20:02:48.750Z,15.68
2018-12-26T20:05:17.528Z,14.87
2018-12-26T20:07:46.057Z,17.07
2018-12-26T20:10:15.173Z,14.53
2018-12-26T20:12:43.599Z,13.88
2018-12-26T20:15:12.053Z,14.80
2018-12-26T20:17:41.003Z,15.67
2018-12-26T20:20:10.187Z,15.08
2018-12-26T20:22:38.655Z,14.53
2018-12-26T20:25:07.093Z,14.90
2018-12-26T20:27:35.512Z,14.27
2018-12-26T20:30:05.174Z,15.93
2018-12-26T20:32:33.615Z,15.23
2018-12-26T20:35:02.069Z,14.70
2018-12-26T20:37:30.628Z,16.23
2018-12-26T20:39:59.085Z,13.10
2018-12-26T20:42:27.518Z,15.05
2018-12-26T20:44:55.928Z,14.25
2018-12-26T20:47:25.161Z,14.90
2018-12-26T20:49:53.673Z,15.30
2018-12-26T20:52:22.107Z,14.20
2018-12-26T20:54:50.727Z,15.32
2018-12-26T20:57:19.517Z,14.15
2018-12-26T20:59:48.031Z,15.73
2018-12-26T21:02:16.442Z,14.87
2018-12-26T21:04:47.804Z,14.10
2018-12-26T21:07:16.241Z,14.17
2018-12-26T21:09:45.175Z,14.53
2018-12-26T21:12:13.628Z,13.98
2018-12-26T21:14:42.081Z,12.77
2018-12-26T21:17:10.544Z,13.22
2018-12-26T21:19:39.044Z,13.10
2018-12-26T21:22:07.465Z,14.57
2018-12-26T21:24:35.975Z,14.07
2018-12-26T21:27:04.577Z,13.03
2018-12-26T21:29:33.034Z,14.90
2018-12-26T21:32:01.549Z,13.00
2018-12-26T21:34:30.033Z,15.43
2018-12-26T21:36:59.512Z,15.70
2018-12-26T21:39:27.971Z,13.28
2018-12-26T21:41:56.378Z,15.83
2018-12-26T21:44:24.860Z,13.37
2018-12-26T21:46:54.277Z,15.03
2018-12-26T21:49:22.777Z,13.27
2018-12-26T21:51:51.284Z,14.27
2018-12-26T21:54:19.802Z,13.17
2018-12-26T21:56:49.202Z,13.13
2018-12-26T21:59:17.649Z,14.10
2018-12-26T22:01:46.080Z,14.57
2018-12-26T22:04:14.519Z,15.37
2018-12-26T22:06:42.969Z,13.70
2018-12-26T22:09:11.573Z,13.70
2018-12-26T22:11:40.055Z,13.57
2018-12-26T22:14:09.253Z,13.45
2018-12-26T22:16:37.698Z,14.63
2018-12-26T22:19:06.137Z,14.20
2018-12-26T22:21:34.648Z,14.30
2018-12-26T22:24:03.162Z,14.23
2018-12-26T22:26:31.636Z,15.47
2018-12-26T22:29:00.158Z,12.90
2018-12-26T22:31:28.784Z,13.05
2018-12-26T22:33:57.272Z,15.10
2018-12-26T22:36:25.716Z,14.78
2018-12-26T22:38:54.207Z,15.00
2018-12-26T22:41:22.678Z,16.13
2018-12-26T22:43:51.175Z,15.20
2018-12-26T22:46:21.655Z,16.73
2018-12-26T22:48:50.119Z,13.87
2018-12-26T22:51:18.889Z,13.85
2018-12-26T22:53:47.336Z,14.13
2018-12-26T22:56:15.795Z,15.17
2018-12-26T22:58:44.265Z,13.60
2018-12-26T23:01:12.811Z,14.63
2018-12-26T23:03:41.381Z,12.90
2018-12-26T23:06:09.805Z,15.50
2018-12-26T23:08:38.979Z,14.53
2018-12-26T23:11:07.402Z,15.50
2018-12-26T23:13:38.903Z,14.40
2018-12-26T23:16:07.471Z,13.88
2018-12-26T23:18:36.208Z,13.28
2018-12-26T23:21:04.804Z,13.70
2018-12-26T23:23:33.330Z,13.10
2018-12-26T23:26:01.792Z,15.00
2018-12-26T23:28:30.246Z,14.57
2018-12-26T23:30:58.979Z,14.24
2018-12-26T23:33:27.434Z,13.35
2018-12-26T23:35:55.859Z,12.88
2018-12-26T23:38:24.685Z,14.83
2018-12-26T23:40:54.086Z,13.90
2018-12-26T23:43:27.025Z,14.56
2018-12-26T23:45:55.599Z,15.20
2018-12-26T23:48:24.903Z,13.62
2018-12-26T23:50:53.335Z,14.90
2018-12-26T23:53:21.757Z,14.00
2018-12-26T23:55:50.332Z,13.25
2018-12-26T23:58:18.980Z,13.07
